LIMP METAR and TAF | Updated Today

LIMP METAR

Parma Airport

Observation time: 41 min. ago

LIMP 251950Z 21003KT CAVOK 22/16 Q1016

Need help? Read our tutorial on how to read METARs or read the parsed version below.

Parma Airport (LIMP) METAR

  • Weather conditions on Wed, 25 May 2022 19:50:00 +0000 (41 min. ago):
  • Present conditions: Dry
  • Clouds: Clear skies
  • Visibility: Greater than 10 km
  • Wind: 210 degrees at 3 knots
  • Temperature: 22 celsius
  • Dew point: 16 celsius
  • Pressure: 1016 millibars
  • Remarks: None


Useful to know...

LIMP TAF

Parma Airport

TAF AMD LIMP 251729Z 2518/2618 VRB05KT 9999 FEW030 SCT040 BECMG 2606/2608 08010KT TEMPO 2612/2616 4000 TSRA BECMG 2616/2618 VRB05KT
Observation time: 3:02 hr. ago
Need help? Read our tutorial on how to read TAFs or read the parsed version below.

Parsed version of TAF for Parma Airport (LIMP)

  • From 25 May at 18:00 UTC, to day 26 of the month at 18:00 UTC
  • Clouds: A few at 914 meters; scattered at 1219 meters
  • Visibility: Greater than 10 km
  • Wind: Variable at 5
  • Expected to arise soon, from 26 May at 06:00 UTC, to day 26 of the month at 08:00 UTC
  • Wind: 80 degrees at 10
  • Expected to arise temporarily, from 26 May at 12:00 UTC, to day 26 of the month at 16:00 UTC
  • Visibility: 4000 meters
  • Other: Thunderstorms rain
  • Expected to arise soon, from 26 May at 16:00 UTC, to day 26 of the month at 18:00 UTC
  • Wind: Variable at 5